createdAt,value
2023-02-23T00:01:29.405Z,4.60
2023-02-23T00:03:59.460Z,4.57
2023-02-23T00:06:30.926Z,4.54
2023-02-23T00:09:01.833Z,4.54
2023-02-23T00:11:30.526Z,4.61
2023-02-23T00:14:01.488Z,4.65
2023-02-23T00:16:31.298Z,4.75
2023-02-23T00:19:00.750Z,4.86
2023-02-23T00:21:35.269Z,4.87
2023-02-23T00:24:08.611Z,4.81
2023-02-23T00:26:39.619Z,4.75
2023-02-23T00:29:18.464Z,4.67
2023-02-23T00:31:48.155Z,4.60
2023-02-23T00:34:21.414Z,4.57
2023-02-23T00:36:54.744Z,4.55
2023-02-23T00:39:29.584Z,4.58
2023-02-23T00:42:03.667Z,4.57
2023-02-23T00:44:34.438Z,4.51
2023-02-23T00:47:04.811Z,4.49
2023-02-23T00:49:34.474Z,4.47
2023-02-23T00:52:05.724Z,4.40
2023-02-23T00:54:35.131Z,4.33
2023-02-23T00:57:03.709Z,4.33
2023-02-23T00:59:33.030Z,4.31
2023-02-23T01:02:02.499Z,4.30
2023-02-23T01:04:31.212Z,4.29
2023-02-23T01:07:00.120Z,4.30
2023-02-23T01:09:29.900Z,4.33
2023-02-23T01:12:02.190Z,4.34
2023-02-23T01:14:31.536Z,4.32
2023-02-23T01:17:00.584Z,4.30
2023-02-23T01:19:29.288Z,4.29
2023-02-23T01:21:58.179Z,4.22
2023-02-23T01:24:26.735Z,4.18
2023-02-23T01:26:58.561Z,4.19
2023-02-23T01:29:28.922Z,4.16
2023-02-23T01:31:57.547Z,4.17
2023-02-23T01:34:26.254Z,4.18
2023-02-23T01:36:55.493Z,4.20
2023-02-23T01:39:29.721Z,4.22
2023-02-23T01:41:58.846Z,4.22
2023-02-23T01:44:31.613Z,4.17
2023-02-23T01:47:00.577Z,4.16
2023-02-23T01:49:35.214Z,4.16
2023-02-23T01:52:15.130Z,4.16
2023-02-23T01:54:51.675Z,4.12
2023-02-23T01:57:25.248Z,4.09
2023-02-23T01:59:55.936Z,4.09
2023-02-23T02:02:34.029Z,4.11
2023-02-23T02:05:05.840Z,4.15
2023-02-23T02:07:35.644Z,4.17
2023-02-23T02:10:13.506Z,4.19
2023-02-23T02:12:52.191Z,4.19
2023-02-23T02:15:26.608Z,4.16
2023-02-23T02:18:24.143Z,4.15
2023-02-23T02:21:08.165Z,4.17
2023-02-23T02:23:59.310Z,4.17
2023-02-23T02:26:45.835Z,4.20
2023-02-23T02:29:47.364Z,4.20
2023-02-23T02:32:45.001Z,4.28
2023-02-23T02:35:19.219Z,4.31
2023-02-23T02:37:57.795Z,4.32
2023-02-23T02:40:53.601Z,4.34
2023-02-23T02:43:54.965Z,4.32
2023-02-23T02:46:30.995Z,4.33
2023-02-23T02:49:12.722Z,4.39
2023-02-23T02:51:49.450Z,4.41
2023-02-23T02:54:37.630Z,4.42
2023-02-23T02:57:08.058Z,4.41
2023-02-23T03:00:06.669Z,4.40
2023-02-23T03:02:57.635Z,4.40
2023-02-23T03:05:50.930Z,4.40
2023-02-23T03:09:07.146Z,4.36
2023-02-23T03:12:12.277Z,4.37
2023-02-23T03:15:18.977Z,4.38
2023-02-23T03:18:28.196Z,4.32
2023-02-23T03:21:22.631Z,4.32
2023-02-23T03:24:27.921Z,4.37
2023-02-23T03:27:55.285Z,4.38
2023-02-23T03:30:55.449Z,4.35
2023-02-23T03:33:55.706Z,4.33
2023-02-23T03:36:50.206Z,4.30
2023-02-23T03:40:18.967Z,4.32
2023-02-23T03:43:11.167Z,4.39
2023-02-23T03:46:00.358Z,4.42
2023-02-23T03:48:50.426Z,4.44
2023-02-23T03:51:40.076Z,4.42
2023-02-23T03:54:37.843Z,4.43
2023-02-23T03:57:30.231Z,4.43
2023-02-23T04:00:22.852Z,4.38
2023-02-23T04:03:12.334Z,4.33
2023-02-23T04:06:01.243Z,4.29
2023-02-23T04:08:56.405Z,4.32
2023-02-23T04:11:53.481Z,4.35
2023-02-23T04:14:40.108Z,4.29
2023-02-23T04:17:10.437Z,4.30
2023-02-23T04:19:39.415Z,4.33
2023-02-23T04:22:08.066Z,4.34
2023-02-23T04:24:36.837Z,4.38
2023-02-23T04:27:06.649Z,4.39
2023-02-23T04:29:39.188Z,4.37
2023-02-23T04:32:12.961Z,4.43
2023-02-23T04:34:42.758Z,4.48
2023-02-23T04:37:12.332Z,4.50
2023-02-23T04:39:40.993Z,4.51
2023-02-23T04:42:10.612Z,4.51
2023-02-23T04:44:39.888Z,4.48
2023-02-23T04:47:08.481Z,4.43
2023-02-23T04:49:37.241Z,4.38
2023-02-23T04:52:07.041Z,4.31
2023-02-23T04:54:41.176Z,4.25
2023-02-23T04:57:10.709Z,4.23
2023-02-23T04:59:39.308Z,4.24
2023-02-23T05:02:08.501Z,4.27
2023-02-23T05:04:37.627Z,4.30
2023-02-23T05:07:06.345Z,4.31
2023-02-23T05:09:35.464Z,4.32
2023-02-23T05:12:04.305Z,4.35
2023-02-23T05:14:32.946Z,4.37
2023-02-23T05:17:01.648Z,4.34
2023-02-23T05:19:30.474Z,4.30
2023-02-23T05:21:59.346Z,4.31
2023-02-23T05:24:28.294Z,4.29
2023-02-23T05:26:57.121Z,4.23
2023-02-23T05:29:25.750Z,4.19
2023-02-23T05:31:55.142Z,4.13
2023-02-23T05:34:24.459Z,4.10
2023-02-23T05:36:54.558Z,4.13
2023-02-23T05:39:23.515Z,4.12
2023-02-23T05:41:52.987Z,4.10
2023-02-23T05:44:21.562Z,4.11
2023-02-23T05:46:50.263Z,4.19
2023-02-23T05:49:19.477Z,4.24
2023-02-23T05:51:47.977Z,4.27
2023-02-23T05:54:17.032Z,4.25
2023-02-23T05:56:46.393Z,4.26
2023-02-23T05:59:18.002Z,4.28
2023-02-23T06:01:47.234Z,4.31
2023-02-23T06:04:16.021Z,4.35
2023-02-23T06:06:45.468Z,4.39
2023-02-23T06:09:14.534Z,4.44
2023-02-23T06:11:43.181Z,4.48
2023-02-23T06:14:12.378Z,4.51
2023-02-23T06:16:41.779Z,4.54
2023-02-23T06:19:10.842Z,4.57
2023-02-23T06:21:39.529Z,4.58
2023-02-23T06:24:09.231Z,4.61
2023-02-23T06:26:38.258Z,4.66
2023-02-23T06:29:08.622Z,4.72
2023-02-23T06:31:37.391Z,4.77
2023-02-23T06:34:06.044Z,4.85
2023-02-23T06:36:35.147Z,4.88
2023-02-23T06:39:04.372Z,4.91
2023-02-23T06:41:33.771Z,4.97
2023-02-23T06:44:03.113Z,5.00
2023-02-23T06:46:33.717Z,5.06
2023-02-23T06:49:02.609Z,5.12
2023-02-23T06:51:31.613Z,5.19
2023-02-23T06:54:00.537Z,5.23
2023-02-23T06:56:29.161Z,5.23
2023-02-23T06:58:58.386Z,5.29
2023-02-23T07:01:27.479Z,5.43
2023-02-23T07:03:56.245Z,5.48
2023-02-23T07:06:25.436Z,5.47
2023-02-23T07:08:58.260Z,5.46
2023-02-23T07:11:26.932Z,5.45
2023-02-23T07:14:01.764Z,5.44
2023-02-23T07:16:31.464Z,5.47
2023-02-23T07:19:00.144Z,5.62
2023-02-23T07:21:29.078Z,5.84
2023-02-23T07:23:58.330Z,6.07
2023-02-23T07:26:28.009Z,6.41
2023-02-23T07:28:56.624Z,6.81
2023-02-23T07:31:26.964Z,7.12
2023-02-23T07:33:55.877Z,7.18
2023-02-23T07:36:25.182Z,7.19
2023-02-23T07:38:54.852Z,7.20
2023-02-23T07:41:24.226Z,7.20
2023-02-23T07:43:52.777Z,7.24
2023-02-23T07:46:22.659Z,7.38
2023-02-23T07:48:51.710Z,7.56
2023-02-23T07:51:21.026Z,7.79
2023-02-23T07:53:50.306Z,7.95
2023-02-23T07:56:19.543Z,8.09
2023-02-23T07:58:48.352Z,8.23
2023-02-23T08:01:17.627Z,8.48
2023-02-23T08:03:49.920Z,8.92
2023-02-23T08:06:20.678Z,9.46
2023-02-23T08:08:49.512Z,9.91
2023-02-23T08:11:18.442Z,10.47
2023-02-23T08:13:47.962Z,10.86
2023-02-23T08:16:18.931Z,11.00
2023-02-23T08:18:47.659Z,11.10
2023-02-23T08:21:16.952Z,11.21
2023-02-23T08:23:46.197Z,11.19
2023-02-23T08:26:14.864Z,10.98
2023-02-23T08:28:46.366Z,10.82
2023-02-23T08:31:19.030Z,10.78
2023-02-23T08:33:48.332Z,10.88
2023-02-23T08:36:17.221Z,10.94
2023-02-23T08:38:45.888Z,11.01
2023-02-23T08:41:15.515Z,11.04
2023-02-23T08:43:44.394Z,10.96
2023-02-23T08:46:13.495Z,10.91
2023-02-23T08:48:43.099Z,10.96
2023-02-23T08:51:11.890Z,11.04
2023-02-23T08:53:41.878Z,11.16
2023-02-23T08:56:16.057Z,11.30
2023-02-23T08:58:59.746Z,11.45
2023-02-23T09:01:37.502Z,11.55
2023-02-23T09:04:07.195Z,11.59
2023-02-23T09:06:36.879Z,11.70
2023-02-23T09:09:06.247Z,11.82
2023-02-23T09:11:35.022Z,11.94
2023-02-23T09:14:04.264Z,12.01
2023-02-23T09:16:34.107Z,12.05
2023-02-23T09:19:04.048Z,12.15
2023-02-23T09:21:34.819Z,12.29
2023-02-23T09:24:03.667Z,12.41
2023-02-23T09:26:33.735Z,12.49
2023-02-23T09:29:03.379Z,12.53
2023-02-23T09:31:32.486Z,12.66
2023-02-23T09:34:02.211Z,12.70
2023-02-23T09:36:31.963Z,12.81
2023-02-23T09:39:01.135Z,12.87
2023-02-23T09:42:04.171Z,12.98
2023-02-23T09:44:58.113Z,13.09
2023-02-23T09:47:52.511Z,13.20
2023-02-23T09:50:24.000Z,13.24
2023-02-23T09:53:04.913Z,13.31
2023-02-23T09:55:34.191Z,13.31
2023-02-23T09:58:09.222Z,13.33
2023-02-23T10:00:44.652Z,13.36
2023-02-23T10:03:28.756Z,13.33
2023-02-23T10:06:09.352Z,13.24
2023-02-23T10:08:50.747Z,13.24
2023-02-23T10:11:42.231Z,13.20
2023-02-23T10:14:23.053Z,13.16
2023-02-23T10:17:16.727Z,13.14
2023-02-23T10:19:56.953Z,13.05
2023-02-23T10:22:26.876Z,12.97
2023-02-23T10:25:10.275Z,12.96
2023-02-23T10:27:45.639Z,12.99
2023-02-23T10:30:40.586Z,13.00
2023-02-23T10:33:29.005Z,13.01
2023-02-23T10:36:13.312Z,13.06
2023-02-23T10:38:42.718Z,13.11
2023-02-23T10:41:14.932Z,13.14
2023-02-23T10:43:43.989Z,13.17
2023-02-23T10:46:22.887Z,13.18
2023-02-23T10:48:56.005Z,13.17
2023-02-23T10:51:34.972Z,13.20
2023-02-23T10:54:36.457Z,13.26
2023-02-23T10:57:08.182Z,13.31
2023-02-23T10:59:37.222Z,13.35
2023-02-23T11:02:25.982Z,13.38
2023-02-23T11:04:57.868Z,13.44
2023-02-23T11:07:32.450Z,13.48
2023-02-23T11:10:26.234Z,13.56
2023-02-23T11:12:55.564Z,13.64
2023-02-23T11:15:49.913Z,13.67
2023-02-23T11:18:24.324Z,13.71
2023-02-23T11:20:55.046Z,13.79
2023-02-23T11:23:31.842Z,13.88
2023-02-23T11:26:03.896Z,13.96
2023-02-23T11:28:36.626Z,14.00
2023-02-23T11:31:26.648Z,14.05
2023-02-23T11:33:57.716Z,14.07
2023-02-23T11:36:43.501Z,14.11
2023-02-23T11:39:25.062Z,14.19
2023-02-23T11:42:15.931Z,14.19
2023-02-23T11:44:50.893Z,14.20
2023-02-23T11:47:23.211Z,14.25
2023-02-23T11:49:52.510Z,14.28
2023-02-23T11:52:23.987Z,14.34
2023-02-23T11:55:02.280Z,14.39
2023-02-23T11:57:34.930Z,14.39
2023-02-23T12:00:21.668Z,14.36
2023-02-23T12:02:55.828Z,14.38
2023-02-23T12:05:30.169Z,14.39
2023-02-23T12:08:03.063Z,14.42
2023-02-23T12:10:51.166Z,14.46
2023-02-23T12:13:39.925Z,14.54
2023-02-23T12:16:25.445Z,14.64
2023-02-23T12:19:00.497Z,14.68
2023-02-23T12:21:47.060Z,14.71
2023-02-23T12:24:36.146Z,14.75
2023-02-23T12:27:14.013Z,14.77
2023-02-23T12:30:17.132Z,14.77
2023-02-23T12:33:12.366Z,14.78
2023-02-23T12:36:21.430Z,14.84
2023-02-23T12:39:34.484Z,14.88
2023-02-23T12:42:40.272Z,14.94
2023-02-23T12:45:27.229Z,14.97
2023-02-23T12:48:30.067Z,14.92
2023-02-23T12:51:02.771Z,14.83
2023-02-23T12:53:39.990Z,14.76
2023-02-23T12:56:33.942Z,14.73
2023-02-23T12:59:19.524Z,14.69
2023-02-23T13:02:18.950Z,14.65
2023-02-23T13:05:18.568Z,14.62
2023-02-23T13:07:57.137Z,14.54
2023-02-23T13:10:50.284Z,14.46
2023-02-23T13:13:42.807Z,14.44
2023-02-23T13:16:34.590Z,14.43
2023-02-23T13:19:22.036Z,14.39
2023-02-23T13:22:17.148Z,14.34
2023-02-23T13:24:49.774Z,14.33
2023-02-23T13:27:36.493Z,14.38
2023-02-23T13:30:09.743Z,14.43
2023-02-23T13:32:40.082Z,14.49
2023-02-23T13:35:17.288Z,14.56
2023-02-23T13:37:53.902Z,14.62
2023-02-23T13:40:51.249Z,14.67
2023-02-23T13:43:43.507Z,14.71
2023-02-23T13:46:27.106Z,14.74
2023-02-23T13:49:28.752Z,14.71
2023-02-23T13:52:11.402Z,14.68
2023-02-23T13:54:57.378Z,14.71
2023-02-23T13:57:28.952Z,14.74
2023-02-23T13:59:58.783Z,14.74
2023-02-23T14:02:39.913Z,14.73
2023-02-23T14:05:19.986Z,14.73
2023-02-23T14:07:54.926Z,14.67
2023-02-23T14:10:30.145Z,14.64
2023-02-23T14:13:25.356Z,14.64
2023-02-23T14:16:15.981Z,14.61
2023-02-23T14:18:58.317Z,14.59
2023-02-23T14:21:33.790Z,14.54
2023-02-23T14:24:27.516Z,14.46
2023-02-23T14:27:42.240Z,14.38
2023-02-23T14:30:11.773Z,14.34
2023-02-23T14:32:46.669Z,14.32
2023-02-23T14:35:36.936Z,14.29
2023-02-23T14:38:13.952Z,14.26
2023-02-23T14:40:49.330Z,14.22
2023-02-23T14:43:51.740Z,14.19
2023-02-23T14:46:24.071Z,14.13
2023-02-23T14:49:19.531Z,14.07
2023-02-23T14:52:04.820Z,13.99
2023-02-23T14:54:35.078Z,13.92
2023-02-23T14:57:26.783Z,13.87
2023-02-23T15:00:02.158Z,13.81
2023-02-23T15:02:31.880Z,13.75
2023-02-23T15:05:15.490Z,13.70
2023-02-23T15:07:46.126Z,13.65
2023-02-23T15:10:28.507Z,13.60
2023-02-23T15:12:58.175Z,13.53
2023-02-23T15:15:28.076Z,13.46
2023-02-23T15:18:01.501Z,13.38
2023-02-23T15:23:05.138Z,13.25
2023-02-23T15:25:40.120Z,13.18
2023-02-23T15:28:21.335Z,13.12
2023-02-23T15:30:51.916Z,13.02
2023-02-23T15:33:29.060Z,12.94
2023-02-23T15:36:16.111Z,12.84
2023-02-23T15:38:51.761Z,12.73
2023-02-23T15:41:38.609Z,12.63
2023-02-23T15:44:15.951Z,12.52
2023-02-23T15:46:48.903Z,12.43
2023-02-23T15:49:20.780Z,12.35
2023-02-23T15:51:53.473Z,12.29
2023-02-23T15:54:28.479Z,12.23
2023-02-23T15:57:02.686Z,12.17
2023-02-23T15:59:37.152Z,12.10
2023-02-23T16:02:17.036Z,12.02
2023-02-23T16:04:54.330Z,11.94
2023-02-23T16:07:26.337Z,11.86
2023-02-23T16:10:04.649Z,11.78
2023-02-23T16:12:38.830Z,11.68
2023-02-23T16:15:27.588Z,11.58
2023-02-23T16:18:03.876Z,11.51
2023-02-23T16:20:47.100Z,11.45
2023-02-23T16:23:42.263Z,11.41
2023-02-23T16:26:18.607Z,11.38
2023-02-23T16:28:47.944Z,11.37
2023-02-23T16:31:26.409Z,11.35
2023-02-23T16:33:57.393Z,11.33
2023-02-23T16:36:40.105Z,11.29
2023-02-23T16:39:13.455Z,11.25
2023-02-23T16:41:43.024Z,11.21
2023-02-23T16:44:16.698Z,11.16
2023-02-23T16:46:54.548Z,11.11
2023-02-23T16:49:23.740Z,11.08
2023-02-23T16:51:52.502Z,11.06
2023-02-23T16:54:21.449Z,11.04
2023-02-23T16:56:55.658Z,11.04
2023-02-23T16:59:25.062Z,11.04
2023-02-23T17:01:54.542Z,11.03
2023-02-23T17:04:24.072Z,11.03
2023-02-23T17:06:58.081Z,11.02
2023-02-23T17:09:27.760Z,10.99
2023-02-23T17:11:58.148Z,10.97
2023-02-23T17:14:32.211Z,10.95
2023-02-23T17:17:01.303Z,10.90
2023-02-23T17:19:30.381Z,10.86
2023-02-23T17:21:59.334Z,10.83
2023-02-23T17:24:28.282Z,10.79
2023-02-23T17:26:57.036Z,10.77
2023-02-23T17:29:25.969Z,10.76
2023-02-23T17:31:55.939Z,10.75
2023-02-23T17:34:26.735Z,10.74
2023-02-23T17:36:56.078Z,10.74
2023-02-23T17:39:28.556Z,10.74
2023-02-23T17:41:58.174Z,10.73
2023-02-23T17:44:26.664Z,10.70
2023-02-23T17:46:55.312Z,10.66
2023-02-23T17:49:25.755Z,10.63
2023-02-23T17:51:54.139Z,10.60
2023-02-23T17:54:22.986Z,10.57
2023-02-23T17:56:53.033Z,10.55
2023-02-23T17:59:21.935Z,10.54
2023-02-23T18:01:50.965Z,10.55
2023-02-23T18:04:31.507Z,10.55
2023-02-23T18:07:17.180Z,10.53
2023-02-23T18:10:11.245Z,10.50
2023-02-23T18:12:59.690Z,10.48
2023-02-23T18:15:46.065Z,10.46
2023-02-23T18:18:48.599Z,10.43
2023-02-23T18:21:33.858Z,10.39
2023-02-23T18:24:23.600Z,10.38
2023-02-23T18:27:20.638Z,10.35
2023-02-23T18:30:13.593Z,10.35
2023-02-23T18:33:13.853Z,10.36
2023-02-23T18:36:09.017Z,10.36
2023-02-23T18:39:06.664Z,10.36
2023-02-23T18:42:00.844Z,10.36
2023-02-23T18:44:37.234Z,10.34
2023-02-23T18:47:06.295Z,10.30
2023-02-23T18:49:35.206Z,10.28
2023-02-23T18:52:09.632Z,10.25
2023-02-23T18:54:40.494Z,10.21
2023-02-23T18:57:09.184Z,10.21
2023-02-23T18:59:37.956Z,10.21
2023-02-23T19:02:07.407Z,10.21
2023-02-23T19:04:36.796Z,10.18
2023-02-23T19:07:05.871Z,10.15
2023-02-23T19:09:34.749Z,10.13
2023-02-23T19:12:03.991Z,10.10
2023-02-23T19:14:48.262Z,10.09
2023-02-23T19:17:19.618Z,10.08
2023-02-23T19:19:51.752Z,10.10
2023-02-23T19:22:21.504Z,10.12
2023-02-23T19:24:50.251Z,10.13
2023-02-23T19:27:19.583Z,10.09
2023-02-23T19:29:48.909Z,10.05
2023-02-23T19:32:18.540Z,10.03
2023-02-23T19:34:48.133Z,10.05
2023-02-23T19:37:17.048Z,10.06
2023-02-23T19:39:46.767Z,10.08
2023-02-23T19:42:19.054Z,10.10
2023-02-23T19:44:52.306Z,10.11
2023-02-23T19:47:22.043Z,10.10
2023-02-23T19:49:51.035Z,10.10
2023-02-23T19:52:19.651Z,10.08
2023-02-23T19:54:48.545Z,10.06
2023-02-23T19:57:17.448Z,10.01
2023-02-23T19:59:46.201Z,9.98
2023-02-23T20:02:16.873Z,9.97
2023-02-23T20:04:52.480Z,9.96
2023-02-23T20:07:21.508Z,9.96
2023-02-23T20:09:50.261Z,9.99
2023-02-23T20:12:19.232Z,10.00
2023-02-23T20:14:50.325Z,10.02
2023-02-23T20:17:19.181Z,10.01
2023-02-23T20:19:48.281Z,9.98
2023-02-23T20:22:17.392Z,9.96
2023-02-23T20:24:46.471Z,9.93
2023-02-23T20:27:15.188Z,9.90
2023-02-23T20:29:44.530Z,9.93
2023-02-23T20:32:13.565Z,9.94
2023-02-23T20:34:45.828Z,9.93
2023-02-23T20:37:14.643Z,9.89
2023-02-23T20:39:43.602Z,9.84
2023-02-23T20:42:12.728Z,9.84
2023-02-23T20:44:41.672Z,9.86
2023-02-23T20:47:11.785Z,9.85
2023-02-23T20:49:42.074Z,9.83
2023-02-23T20:52:14.134Z,9.73
2023-02-23T20:54:42.960Z,9.68
2023-02-23T20:57:14.065Z,9.69
2023-02-23T20:59:46.035Z,9.71
2023-02-23T21:02:15.610Z,9.71
2023-02-23T21:04:45.280Z,9.70
2023-02-23T21:07:14.438Z,9.71
2023-02-23T21:09:43.758Z,9.70
2023-02-23T21:12:14.179Z,9.68
2023-02-23T21:14:42.917Z,9.67
2023-02-23T21:17:11.497Z,9.66
2023-02-23T21:19:40.968Z,9.65
2023-02-23T21:22:09.865Z,9.65
2023-02-23T21:24:41.236Z,9.65
2023-02-23T21:27:13.730Z,9.64
2023-02-23T21:29:46.232Z,9.63
2023-02-23T21:32:17.265Z,9.61
2023-02-23T21:34:46.374Z,9.58
2023-02-23T21:37:16.109Z,9.55
2023-02-23T21:39:47.349Z,9.50
2023-02-23T21:42:16.221Z,9.46
2023-02-23T21:44:45.990Z,9.44
2023-02-23T21:47:15.975Z,9.44
2023-02-23T21:49:49.607Z,9.46
2023-02-23T21:52:18.815Z,9.49
2023-02-23T21:54:53.105Z,9.51
2023-02-23T21:57:23.428Z,9.50
2023-02-23T21:59:53.265Z,9.47
2023-02-23T22:02:21.770Z,9.46
2023-02-23T22:04:51.397Z,9.45
2023-02-23T22:07:22.034Z,9.43
2023-02-23T22:09:50.882Z,9.45
2023-02-23T22:12:19.994Z,9.46
2023-02-23T22:14:49.031Z,9.45
2023-02-23T22:17:19.539Z,9.45
2023-02-23T22:19:51.238Z,9.44
2023-02-23T22:22:20.898Z,9.42
2023-02-23T22:24:50.394Z,9.42
2023-02-23T22:27:19.323Z,9.42
2023-02-23T22:29:48.263Z,9.41
2023-02-23T22:32:17.804Z,9.40
2023-02-23T22:34:46.922Z,9.41
2023-02-23T22:37:15.879Z,9.43
2023-02-23T22:39:45.098Z,9.47
2023-02-23T22:42:14.007Z,9.50
2023-02-23T22:44:42.973Z,9.53
2023-02-23T22:47:13.828Z,9.56
2023-02-23T22:49:42.545Z,9.57
2023-02-23T22:52:13.497Z,9.54
2023-02-23T22:54:46.013Z,9.50
2023-02-23T22:57:15.183Z,9.47
2023-02-23T22:59:55.206Z,9.45
2023-02-23T23:02:23.804Z,9.45
2023-02-23T23:04:55.019Z,9.48
2023-02-23T23:07:26.492Z,9.50
2023-02-23T23:09:55.603Z,9.51
2023-02-23T23:12:28.444Z,9.55
2023-02-23T23:15:01.552Z,9.55
2023-02-23T23:17:31.884Z,9.52
2023-02-23T23:20:01.280Z,9.50
2023-02-23T23:22:29.800Z,9.45
2023-02-23T23:24:58.959Z,9.42
2023-02-23T23:27:27.824Z,9.42
2023-02-23T23:29:56.433Z,9.43
2023-02-23T23:32:28.033Z,9.40
2023-02-23T23:34:58.801Z,9.39
2023-02-23T23:37:30.272Z,9.41
2023-02-23T23:40:14.354Z,9.42
2023-02-23T23:42:46.598Z,9.40
2023-02-23T23:45:17.822Z,9.40
2023-02-23T23:47:47.750Z,9.39
2023-02-23T23:50:17.550Z,9.41
2023-02-23T23:52:46.186Z,9.40
2023-02-23T23:55:15.868Z,9.41
2023-02-23T23:57:44.654Z,9.44
